createdAt,value
2017-10-06T00:00:04.533Z,75.03
2017-10-06T00:01:04.372Z,74.74
2017-10-06T00:02:58.893Z,75.42
2017-10-06T00:03:58.701Z,74.93
2017-10-06T00:05:55.109Z,75.13
2017-10-06T00:06:54.773Z,75.22
2017-10-06T00:08:49.181Z,75.89
2017-10-06T00:09:49.172Z,75.32
2017-10-06T00:11:43.637Z,75.32
2017-10-06T00:12:43.958Z,74.93
2017-10-06T00:14:39.717Z,75.32
2017-10-06T00:15:39.733Z,75.32
2017-10-06T00:17:34.190Z,75.13
2017-10-06T00:18:34.245Z,75.32
2017-10-06T00:20:30.429Z,75.03
2017-10-06T00:21:30.689Z,75.51
2017-10-06T00:23:27.214Z,74.74
2017-10-06T00:24:27.286Z,75.13
2017-10-06T00:26:21.702Z,74.84
2017-10-06T00:27:21.710Z,75.32
2017-10-06T00:29:16.910Z,75.79
2017-10-06T00:30:16.199Z,75.60
2017-10-06T00:32:12.583Z,75.79
2017-10-06T00:33:12.206Z,74.93
2017-10-06T00:35:15.375Z,75.03
2017-10-06T00:36:06.678Z,75.79
2017-10-06T00:38:01.646Z,75.51
2017-10-06T00:39:01.367Z,75.70
2017-10-06T00:40:55.775Z,76.08
2017-10-06T00:41:55.694Z,76.08
2017-10-06T00:43:50.163Z,75.32
2017-10-06T00:44:50.175Z,75.79
2017-10-06T00:46:44.791Z,75.79
2017-10-06T00:47:44.766Z,75.70
2017-10-06T00:49:39.415Z,75.32
2017-10-06T00:50:39.231Z,75.89
2017-10-06T00:52:33.823Z,75.98
2017-10-06T00:53:33.679Z,75.79
2017-10-06T00:55:28.079Z,75.51
2017-10-06T00:56:28.143Z,75.79
2017-10-06T00:58:24.599Z,75.89
2017-10-06T00:59:24.649Z,75.79
2017-10-06T01:01:18.848Z,76.37
2017-10-06T01:02:18.807Z,75.51
2017-10-06T01:04:13.246Z,76.65
2017-10-06T01:05:13.192Z,75.89
2017-10-06T01:07:07.591Z,75.32
2017-10-06T01:08:07.728Z,76.46
2017-10-06T01:10:02.099Z,76.37
2017-10-06T01:11:02.507Z,75.70
2017-10-06T01:12:56.547Z,76.37
2017-10-06T01:13:56.644Z,76.46
2017-10-06T01:15:50.435Z,76.75
2017-10-06T01:16:50.147Z,76.56
2017-10-06T01:18:45.036Z,76.27
2017-10-06T01:19:44.780Z,75.98
2017-10-06T01:21:39.068Z,76.18
2017-10-06T01:22:39.372Z,75.98
2017-10-06T01:24:33.564Z,76.56
2017-10-06T01:25:42.195Z,75.89
2017-10-06T01:27:27.180Z,76.27
2017-10-06T01:28:27.260Z,76.18
2017-10-06T01:30:23.690Z,76.56
2017-10-06T01:31:23.067Z,76.37
2017-10-06T01:33:17.756Z,77.03
2017-10-06T01:34:17.539Z,76.84
2017-10-06T01:36:12.595Z,76.65
2017-10-06T01:37:12.236Z,76.65
2017-10-06T01:39:05.427Z,76.65
2017-10-06T01:40:05.380Z,76.75
2017-10-06T01:41:59.876Z,77.13
2017-10-06T01:42:59.731Z,77.03
2017-10-06T01:44:54.419Z,76.94
2017-10-06T01:45:54.179Z,77.32
2017-10-06T01:47:48.931Z,77.42
2017-10-06T01:48:48.860Z,76.94
2017-10-06T01:50:43.380Z,77.51
2017-10-06T01:51:43.394Z,77.80
2017-10-06T01:53:37.636Z,77.99
2017-10-06T01:54:37.677Z,77.99
2017-10-06T01:56:32.380Z,77.80
2017-10-06T01:57:32.148Z,78.18
2017-10-06T01:59:26.892Z,77.89
2017-10-06T02:00:26.908Z,77.61
2017-10-06T02:02:21.126Z,77.80
2017-10-06T02:03:21.308Z,77.61
2017-10-06T02:05:14.885Z,78.09
2017-10-06T02:06:14.656Z,77.99
2017-10-06T02:08:10.836Z,77.99
2017-10-06T02:09:10.869Z,78.66
2017-10-06T02:11:05.317Z,78.37
2017-10-06T02:12:05.172Z,77.99
2017-10-06T02:13:59.573Z,78.56
2017-10-06T02:15:08.300Z,78.47
2017-10-06T02:16:55.613Z,78.75
2017-10-06T02:17:55.629Z,78.94
2017-10-06T02:19:50.493Z,78.56
2017-10-06T02:20:50.125Z,78.37
2017-10-06T02:22:44.646Z,78.33
2017-10-06T02:23:45.165Z,79.19
2017-10-06T02:25:40.653Z,78.62
2017-10-06T02:26:40.158Z,79.10
2017-10-06T02:28:35.301Z,78.72
2017-10-06T02:29:34.286Z,78.91
2017-10-06T02:31:37.510Z,78.91
2017-10-06T02:32:29.406Z,78.72
2017-10-06T02:34:22.349Z,78.14
2017-10-06T02:35:22.342Z,78.91
2017-10-06T02:37:18.638Z,79.10
2017-10-06T02:38:18.638Z,78.43
2017-10-06T02:40:13.062Z,79.10
2017-10-06T02:41:13.108Z,79.19
2017-10-06T02:43:07.542Z,78.81
2017-10-06T02:44:07.646Z,79.28
2017-10-06T02:46:02.462Z,79.10
2017-10-06T02:47:02.423Z,79.00
2017-10-06T02:48:56.574Z,78.91
2017-10-06T02:49:56.566Z,79.38
2017-10-06T02:51:51.951Z,79.00
2017-10-06T02:52:51.431Z,79.10
2017-10-06T02:54:45.503Z,79.00
2017-10-06T02:55:45.535Z,79.57
2017-10-06T02:57:39.967Z,79.57
2017-10-06T02:58:40.023Z,79.19
2017-10-06T03:00:33.614Z,79.48
2017-10-06T03:01:33.605Z,79.77
2017-10-06T03:03:27.983Z,79.96
2017-10-06T03:04:28.159Z,80.15
2017-10-06T03:06:21.439Z,79.96
2017-10-06T03:07:21.496Z,79.86
2017-10-06T03:09:16.752Z,80.15
2017-10-06T03:10:15.975Z,79.67
2017-10-06T03:12:10.455Z,80.05
2017-10-06T03:13:10.519Z,79.77
2017-10-06T03:15:04.951Z,79.96
2017-10-06T03:16:05.440Z,79.86
2017-10-06T03:17:59.511Z,79.63
2017-10-06T03:18:59.604Z,79.72
2017-10-06T03:21:06.445Z,79.91
2017-10-06T03:22:06.061Z,79.96
2017-10-06T03:24:00.717Z,79.91
2017-10-06T03:25:01.156Z,79.91
2017-10-06T03:26:54.949Z,80.01
2017-10-06T03:27:56.196Z,80.11
2017-10-06T03:29:51.962Z,79.82
2017-10-06T03:30:51.214Z,80.49
2017-10-06T03:32:47.437Z,80.39
2017-10-06T03:33:47.253Z,80.49
2017-10-06T03:35:41.813Z,80.30
2017-10-06T03:36:42.205Z,80.49
2017-10-06T03:38:36.269Z,80.49
2017-10-06T03:39:36.390Z,80.49
2017-10-06T03:41:32.805Z,81.01
2017-10-06T03:42:32.230Z,80.96
2017-10-06T03:44:26.726Z,81.38
2017-10-06T03:45:26.701Z,81.38
2017-10-06T03:47:23.741Z,81.38
2017-10-06T03:48:23.806Z,82.15
2017-10-06T03:50:19.014Z,81.58
2017-10-06T03:51:18.270Z,80.96
2017-10-06T03:53:12.694Z,81.96
2017-10-06T03:54:13.150Z,82.06
2017-10-06T03:56:06.198Z,81.38
2017-10-06T03:57:06.222Z,81.29
2017-10-06T03:59:00.663Z,81.29
2017-10-06T04:00:00.822Z,82.15
2017-10-06T04:01:56.726Z,81.44
2017-10-06T04:02:56.718Z,81.38
2017-10-06T04:04:52.727Z,82.34
2017-10-06T04:05:52.782Z,81.96
2017-10-06T04:07:48.806Z,81.82
2017-10-06T04:08:49.167Z,81.38
2017-10-06T04:10:44.823Z,81.15
2017-10-06T04:11:44.879Z,81.10
2017-10-06T04:13:39.231Z,81.15
2017-10-06T04:14:38.359Z,81.35
2017-10-06T04:16:32.825Z,81.25
2017-10-06T04:17:31.879Z,80.87
2017-10-06T04:19:25.479Z,81.44
2017-10-06T04:20:27.255Z,81.54
2017-10-06T04:22:19.992Z,82.20
2017-10-06T04:23:19.999Z,82.01
2017-10-06T04:25:13.359Z,82.01
2017-10-06T04:26:13.399Z,81.25
2017-10-06T04:28:06.455Z,82.30
2017-10-06T04:29:07.401Z,81.63
2017-10-06T04:31:00.504Z,81.44
2017-10-06T04:32:00.688Z,81.54
2017-10-06T04:33:54.119Z,82.20
2017-10-06T04:34:54.176Z,82.01
2017-10-06T04:36:48.552Z,82.11
2017-10-06T04:37:48.528Z,82.11
2017-10-06T04:39:44.656Z,82.68
2017-10-06T04:40:44.368Z,82.11
2017-10-06T04:42:41.352Z,82.30
2017-10-06T04:43:41.208Z,82.11
2017-10-06T04:45:37.240Z,81.73
2017-10-06T04:46:37.648Z,82.30
2017-10-06T04:48:30.800Z,82.01
2017-10-06T04:49:30.785Z,82.01
2017-10-06T04:51:25.337Z,81.92
2017-10-06T04:52:25.609Z,82.11
2017-10-06T04:54:19.864Z,82.11
2017-10-06T04:55:19.912Z,82.20
2017-10-06T04:57:13.433Z,82.01
2017-10-06T04:58:13.520Z,82.40
2017-10-06T05:00:07.889Z,82.11
2017-10-06T05:01:07.976Z,82.68
2017-10-06T05:03:04.065Z,82.01
2017-10-06T05:04:04.899Z,82.49
2017-10-06T05:05:58.521Z,82.68
2017-10-06T05:06:58.801Z,82.68
2017-10-06T05:08:53.133Z,82.83
2017-10-06T05:09:53.117Z,82.87
2017-10-06T05:11:49.046Z,82.78
2017-10-06T05:12:49.053Z,82.20
2017-10-06T05:14:45.021Z,82.45
2017-10-06T05:15:45.085Z,82.40
2017-10-06T05:17:39.695Z,82.07
2017-10-06T05:18:39.614Z,82.64
2017-10-06T05:20:34.037Z,82.73
2017-10-06T05:21:47.244Z,82.64
2017-10-06T05:23:29.943Z,82.54
2017-10-06T05:24:28.645Z,82.83
2017-10-06T05:26:23.077Z,82.64
2017-10-06T05:27:23.069Z,82.35
2017-10-06T05:29:16.573Z,82.73
2017-10-06T05:30:16.596Z,82.92
2017-10-06T05:32:11.597Z,82.83
2017-10-06T05:33:11.110Z,83.12
2017-10-06T05:35:07.117Z,82.54
2017-10-06T05:36:07.125Z,82.83
2017-10-06T05:38:00.581Z,82.92
2017-10-06T05:39:00.606Z,83.02
2017-10-06T05:40:54.582Z,83.50
2017-10-06T05:41:54.621Z,83.21
2017-10-06T05:43:46.589Z,83.21
2017-10-06T05:44:46.630Z,82.92
2017-10-06T05:46:40.062Z,82.92
2017-10-06T05:47:40.086Z,83.02
2017-10-06T05:49:33.102Z,82.92
2017-10-06T05:50:34.086Z,82.92
2017-10-06T05:52:26.053Z,83.12
2017-10-06T05:53:26.102Z,83.12
2017-10-06T05:55:19.095Z,83.59
2017-10-06T05:56:19.094Z,83.69
2017-10-06T05:58:12.583Z,83.02
2017-10-06T05:59:12.589Z,83.69
2017-10-06T06:01:06.062Z,83.59
2017-10-06T06:02:06.078Z,83.12
2017-10-06T06:04:00.614Z,83.69
2017-10-06T06:05:00.574Z,83.31
2017-10-06T06:06:54.039Z,83.69
2017-10-06T06:07:54.070Z,83.88
2017-10-06T06:09:47.542Z,83.97
2017-10-06T06:10:47.567Z,83.88
2017-10-06T06:12:41.015Z,84.36
2017-10-06T06:13:41.086Z,84.07
2017-10-06T06:15:37.574Z,83.88
2017-10-06T06:16:37.118Z,84.16
2017-10-06T06:18:32.223Z,84.30
2017-10-06T06:19:31.679Z,84.49
2017-10-06T06:21:26.735Z,84.30
2017-10-06T06:22:26.167Z,84.11
2017-10-06T06:24:19.096Z,84.30
2017-10-06T06:25:19.144Z,84.59
2017-10-06T06:27:12.113Z,83.92
2017-10-06T06:28:12.128Z,84.11
2017-10-06T06:30:05.096Z,84.49
2017-10-06T06:31:05.137Z,84.20
2017-10-06T06:32:58.113Z,84.20
2017-10-06T06:33:58.121Z,84.30
2017-10-06T06:35:51.105Z,84.40
2017-10-06T06:36:51.128Z,84.30
2017-10-06T06:38:44.097Z,84.59
2017-10-06T06:39:44.129Z,84.49
2017-10-06T06:41:37.130Z,84.30
2017-10-06T06:42:37.136Z,83.73
2017-10-06T06:44:31.857Z,83.73
2017-10-06T06:45:31.745Z,83.87
2017-10-06T06:47:25.201Z,83.96
2017-10-06T06:48:25.209Z,83.67
2017-10-06T06:50:18.177Z,83.96
2017-10-06T06:51:18.201Z,83.20
2017-10-06T06:53:11.213Z,83.58
2017-10-06T06:54:11.233Z,83.39
2017-10-06T06:56:04.193Z,83.39
2017-10-06T06:57:04.260Z,83.29
2017-10-06T06:58:57.225Z,82.91
2017-10-06T06:59:57.250Z,83.01
2017-10-06T07:01:50.237Z,82.91
2017-10-06T07:02:50.250Z,82.82
2017-10-06T07:04:43.274Z,82.57
2017-10-06T07:05:43.226Z,82.53
2017-10-06T07:07:36.257Z,83.43
2017-10-06T07:08:37.242Z,83.53
2017-10-06T07:10:29.234Z,82.86
2017-10-06T07:11:29.265Z,82.48
2017-10-06T07:13:22.274Z,82.76
2017-10-06T07:14:22.250Z,82.67
2017-10-06T07:16:15.226Z,82.38
2017-10-06T07:17:15.313Z,82.38
2017-10-06T07:19:08.267Z,82.19
2017-10-06T07:20:08.259Z,82.09
2017-10-06T07:22:01.298Z,82.19
2017-10-06T07:23:01.291Z,82.09
2017-10-06T07:24:55.762Z,81.90
2017-10-06T07:25:55.867Z,82.19
2017-10-06T07:27:49.319Z,81.71
2017-10-06T07:28:49.354Z,82.00
2017-10-06T07:30:42.330Z,82.09
2017-10-06T07:31:42.371Z,82.00
2017-10-06T07:33:36.339Z,82.09
2017-10-06T07:34:35.348Z,82.57
2017-10-06T07:36:28.331Z,82.19
2017-10-06T07:37:28.363Z,82.48
2017-10-06T07:39:21.355Z,82.00
2017-10-06T07:40:21.355Z,82.19
2017-10-06T07:42:14.363Z,82.95
2017-10-06T07:43:14.372Z,83.14
2017-10-06T07:45:07.347Z,82.42
2017-10-06T07:46:07.370Z,82.90
2017-10-06T07:48:00.372Z,82.23
2017-10-06T07:49:00.387Z,82.71
2017-10-06T07:50:53.363Z,82.52
2017-10-06T07:51:53.420Z,82.52
2017-10-06T07:53:46.412Z,81.66
2017-10-06T07:54:46.456Z,81.27
2017-10-06T07:56:39.900Z,81.37
2017-10-06T07:57:39.932Z,81.76
2017-10-06T07:59:33.516Z,81.09
2017-10-06T08:00:34.412Z,80.90
2017-10-06T08:02:26.996Z,81.70
2017-10-06T08:03:27.021Z,81.41
2017-10-06T08:05:20.516Z,81.32
2017-10-06T08:06:20.565Z,81.22
2017-10-06T08:08:13.564Z,81.22
2017-10-06T08:09:13.572Z,80.93
2017-10-06T08:11:06.525Z,80.11
2017-10-06T08:12:06.550Z,80.50
2017-10-06T08:14:00.532Z,80.50
2017-10-06T08:14:59.573Z,80.40
2017-10-06T08:16:52.533Z,79.64
2017-10-06T08:17:52.572Z,78.97
2017-10-06T08:19:45.608Z,80.02
2017-10-06T08:20:45.591Z,79.64
2017-10-06T08:22:38.601Z,79.25
2017-10-06T08:23:38.583Z,79.73
2017-10-06T08:25:31.549Z,80.11
2017-10-06T08:26:32.549Z,80.07
2017-10-06T08:28:24.621Z,80.36
2017-10-06T08:29:24.590Z,80.40
2017-10-06T08:31:17.567Z,80.50
2017-10-06T08:32:17.597Z,80.69
2017-10-06T08:34:11.630Z,80.11
2017-10-06T08:35:10.621Z,79.93
2017-10-06T08:37:03.581Z,80.30
2017-10-06T08:38:03.623Z,80.11
2017-10-06T08:39:56.654Z,80.11
2017-10-06T08:40:56.662Z,79.83
2017-10-06T08:42:49.606Z,80.11
2017-10-06T08:43:49.630Z,80.30
2017-10-06T08:45:42.630Z,79.73
2017-10-06T08:46:42.662Z,79.54
2017-10-06T08:48:35.623Z,79.35
2017-10-06T08:49:35.638Z,79.93
2017-10-06T08:51:29.558Z,79.93
2017-10-06T08:52:29.638Z,79.06
2017-10-06T08:54:23.766Z,79.25
2017-10-06T08:55:24.006Z,79.06
2017-10-06T08:57:17.327Z,79.35
2017-10-06T08:58:17.343Z,79.25
2017-10-06T09:00:10.311Z,79.44
2017-10-06T09:01:10.318Z,79.49
2017-10-06T09:03:03.311Z,79.20
2017-10-06T09:04:03.335Z,79.39
2017-10-06T09:05:56.312Z,79.00
2017-10-06T09:06:56.343Z,78.43
2017-10-06T09:08:49.301Z,78.19
2017-10-06T09:09:49.372Z,78.09
2017-10-06T09:11:42.351Z,77.23
2017-10-06T09:12:42.336Z,77.13
2017-10-06T09:14:35.335Z,76.84
2017-10-06T09:15:35.370Z,76.75
2017-10-06T09:17:28.327Z,77.75
2017-10-06T09:18:28.359Z,77.75
2017-10-06T09:20:21.399Z,77.55
2017-10-06T09:21:21.395Z,76.89
2017-10-06T09:23:16.847Z,76.89
2017-10-06T09:24:16.360Z,77.08
2017-10-06T09:26:09.457Z,76.89
2017-10-06T09:27:09.411Z,76.75
2017-10-06T09:29:02.399Z,76.21
2017-10-06T09:30:02.424Z,76.31
2017-10-06T09:31:55.432Z,75.83
2017-10-06T09:32:55.456Z,76.40
2017-10-06T09:34:48.408Z,76.02
2017-10-06T09:35:48.458Z,75.54
2017-10-06T09:37:41.479Z,75.54
2017-10-06T09:38:41.447Z,75.07
2017-10-06T09:40:34.440Z,75.07
2017-10-06T09:41:34.464Z,75.54
2017-10-06T09:43:27.464Z,76.79
2017-10-06T09:44:27.464Z,75.83
2017-10-06T09:46:20.521Z,75.93
2017-10-06T09:47:20.505Z,75.64
2017-10-06T09:49:15.000Z,76.12
2017-10-06T09:50:13.504Z,76.12
2017-10-06T09:52:08.009Z,75.26
2017-10-06T09:53:08.297Z,75.35
2017-10-06T09:55:01.569Z,75.45
2017-10-06T09:56:01.569Z,75.26
2017-10-06T09:57:55.529Z,75.64
2017-10-06T09:58:54.553Z,75.20
2017-10-06T10:00:47.569Z,75.68
2017-10-06T10:01:47.625Z,75.20
2017-10-06T10:03:40.569Z,74.66
2017-10-06T10:04:40.625Z,74.79
2017-10-06T10:06:33.581Z,73.55
2017-10-06T10:07:33.609Z,73.45
2017-10-06T10:09:26.609Z,72.33
2017-10-06T10:10:26.634Z,72.66
2017-10-06T10:12:19.643Z,71.80
2017-10-06T10:13:19.658Z,71.12
2017-10-06T10:15:13.643Z,70.20
2017-10-06T10:16:12.642Z,69.62
2017-10-06T10:18:05.643Z,70.43
2017-10-06T10:19:05.689Z,68.98
2017-10-06T10:21:00.698Z,66.55
2017-10-06T10:21:59.210Z,67.35
2017-10-06T10:23:52.698Z,67.29
2017-10-06T10:24:52.722Z,63.70
2017-10-06T10:26:46.361Z,65.33
2017-10-06T10:27:46.378Z,65.85
2017-10-06T10:29:39.385Z,62.70
2017-10-06T10:30:39.419Z,62.83
2017-10-06T10:32:32.410Z,61.32
2017-10-06T10:33:32.443Z,60.83
2017-10-06T10:35:25.426Z,60.13
2017-10-06T10:36:26.426Z,60.22
2017-10-06T10:38:18.467Z,57.06
2017-10-06T10:39:18.483Z,57.09
2017-10-06T10:41:11.459Z,56.37
2017-10-06T10:42:11.515Z,54.83
2017-10-06T10:44:06.019Z,54.25
2017-10-06T10:45:06.038Z,54.32
2017-10-06T10:47:00.531Z,54.22
2017-10-06T10:48:00.555Z,53.57
2017-10-06T10:49:54.123Z,53.99
2017-10-06T10:50:54.140Z,52.27
2017-10-06T10:52:47.139Z,50.84
2017-10-06T10:53:47.172Z,50.18
2017-10-06T10:55:41.675Z,52.55
2017-10-06T10:56:41.691Z,54.07
2017-10-06T10:58:35.220Z,54.17
2017-10-06T10:59:35.268Z,53.03
2017-10-06T11:01:28.788Z,50.62
2017-10-06T11:02:29.780Z,48.90
2017-10-06T11:04:21.804Z,48.25
2017-10-06T11:05:21.828Z,46.41
2017-10-06T11:07:14.852Z,44.68
2017-10-06T11:08:14.860Z,45.22
2017-10-06T11:10:07.837Z,47.77
2017-10-06T11:11:07.886Z,48.71
2017-10-06T11:13:00.897Z,50.11
2017-10-06T11:14:00.929Z,50.98
2017-10-06T11:15:54.441Z,51.89
2017-10-06T11:16:54.482Z,53.05
2017-10-06T11:18:47.970Z,53.89
2017-10-06T11:19:47.979Z,53.67
2017-10-06T11:21:42.474Z,54.35
2017-10-06T11:22:42.522Z,54.71
2017-10-06T11:24:36.945Z,55.09
2017-10-06T11:25:37.018Z,55.00
2017-10-06T11:27:30.546Z,56.25
2017-10-06T11:28:30.905Z,55.99
2017-10-06T11:30:25.035Z,54.65
2017-10-06T11:31:24.115Z,53.13
2017-10-06T11:33:17.130Z,52.65
2017-10-06T11:34:17.122Z,51.59
2017-10-06T11:36:10.114Z,50.31
2017-10-06T11:37:10.139Z,47.88
2017-10-06T11:39:04.659Z,43.64
2017-10-06T11:40:04.667Z,42.46
2017-10-06T11:41:59.178Z,39.06
2017-10-06T11:42:58.242Z,35.89
2017-10-06T11:44:51.253Z,35.77
2017-10-06T11:45:51.260Z,34.54
2017-10-06T11:47:44.317Z,35.44
2017-10-06T11:48:44.295Z,38.01
2017-10-06T11:50:38.821Z,39.00
2017-10-06T11:51:38.821Z,36.57
2017-10-06T11:53:33.309Z,33.29
2017-10-06T11:54:33.358Z,32.68
2017-10-06T11:56:27.397Z,32.10
2017-10-06T11:57:27.421Z,31.33
2017-10-06T11:59:21.998Z,34.18
2017-10-06T12:00:22.045Z,32.29
2017-10-06T12:02:15.605Z,32.82
2017-10-06T12:03:15.620Z,33.05
2017-10-06T12:05:08.616Z,29.39
2017-10-06T12:06:09.637Z,28.12
2017-10-06T12:08:03.166Z,29.05
2017-10-06T12:09:03.206Z,26.04
2017-10-06T12:10:57.249Z,23.46
2017-10-06T12:11:58.206Z,21.80
2017-10-06T12:13:50.854Z,19.65
2017-10-06T12:14:50.886Z,20.07
2017-10-06T12:16:45.390Z,17.20
2017-10-06T12:17:45.406Z,16.91
2017-10-06T12:19:39.014Z,17.82
2017-10-06T12:20:39.086Z,16.73
2017-10-06T12:22:32.102Z,14.66
2017-10-06T12:23:32.102Z,14.36
2017-10-06T12:25:25.127Z,13.67
2017-10-06T12:26:25.145Z,13.49
2017-10-06T12:28:19.614Z,13.60
2017-10-06T12:29:19.663Z,13.54
2017-10-06T12:31:14.174Z,15.23
2017-10-06T12:32:14.200Z,16.36
2017-10-06T12:34:08.694Z,19.54
2017-10-06T12:35:08.743Z,21.14
2017-10-06T12:37:03.313Z,17.34
2017-10-06T12:38:02.358Z,17.78
2017-10-06T12:39:56.831Z,20.59
2017-10-06T12:40:56.877Z,21.66
2017-10-06T12:42:51.485Z,22.34
2017-10-06T12:43:51.402Z,24.77
2017-10-06T12:45:44.902Z,23.71
2017-10-06T12:46:44.941Z,25.62
2017-10-06T12:48:39.957Z,28.28
2017-10-06T12:49:39.045Z,29.53
2017-10-06T12:51:33.517Z,32.71
2017-10-06T12:52:33.549Z,33.09
2017-10-06T12:54:27.134Z,32.70
2017-10-06T12:55:27.125Z,33.18
2017-10-06T12:57:21.630Z,32.78
2017-10-06T12:58:21.678Z,30.17
2017-10-06T13:00:16.206Z,25.86
2017-10-06T13:01:15.266Z,23.62
2017-10-06T13:03:08.239Z,23.28
2017-10-06T13:04:08.281Z,22.99
2017-10-06T13:06:01.322Z,24.70
2017-10-06T13:07:01.346Z,22.89
2017-10-06T13:08:55.794Z,23.68
2017-10-06T13:09:55.842Z,24.70
2017-10-06T13:11:50.356Z,27.05
2017-10-06T13:12:50.371Z,27.73
2017-10-06T13:14:44.852Z,29.17
2017-10-06T13:15:44.898Z,29.55
2017-10-06T13:17:38.490Z,28.86
2017-10-06T13:18:38.499Z,29.81
2017-10-06T13:20:31.499Z,29.24
2017-10-06T13:21:31.515Z,26.90
2017-10-06T13:23:24.571Z,28.36
2017-10-06T13:24:24.571Z,28.00
2017-10-06T13:26:18.043Z,28.86
2017-10-06T13:27:18.091Z,30.25
2017-10-06T13:29:12.572Z,33.90
2017-10-06T13:30:12.611Z,34.20
2017-10-06T13:32:07.116Z,32.29
2017-10-06T13:33:07.124Z,33.44
2017-10-06T13:35:03.683Z,32.87
2017-10-06T13:36:04.652Z,33.93
2017-10-06T13:37:57.404Z,34.37
2017-10-06T13:38:57.308Z,34.43
2017-10-06T13:40:51.254Z,35.37
2017-10-06T13:41:50.846Z,35.84
2017-10-06T13:43:45.342Z,36.22
2017-10-06T13:44:45.342Z,34.75
2017-10-06T13:46:38.894Z,36.27
2017-10-06T13:47:38.926Z,37.43
2017-10-06T13:49:32.414Z,36.44
2017-10-06T13:50:32.470Z,36.93
2017-10-06T13:52:25.470Z,37.13
2017-10-06T13:53:26.457Z,37.41
2017-10-06T13:55:19.950Z,37.38
2017-10-06T13:56:19.990Z,37.85
2017-10-06T13:59:51.959Z,38.60
2017-10-06T14:00:51.967Z,38.89
2017-10-06T14:02:45.446Z,39.04
2017-10-06T14:03:45.503Z,39.72
2017-10-06T14:05:39.022Z,40.57
2017-10-06T14:06:39.054Z,41.35
2017-10-06T14:08:32.599Z,41.71
2017-10-06T14:09:32.615Z,42.19
2017-10-06T14:11:26.176Z,41.91
2017-10-06T14:12:26.175Z,41.61
2017-10-06T14:14:19.663Z,42.29
2017-10-06T14:15:19.695Z,42.27
2017-10-06T14:17:14.159Z,43.14
2017-10-06T14:18:14.191Z,43.06
2017-10-06T14:20:07.217Z,44.59
2017-10-06T14:21:07.224Z,45.04
2017-10-06T14:23:00.712Z,45.14
2017-10-06T14:24:00.335Z,45.14
2017-10-06T14:25:54.848Z,45.04
2017-10-06T14:26:54.867Z,45.92
2017-10-06T14:28:48.423Z,46.33
2017-10-06T14:29:48.431Z,45.26
2017-10-06T14:31:41.425Z,45.07
2017-10-06T14:32:41.457Z,44.37
2017-10-06T14:34:34.440Z,44.97
2017-10-06T14:35:34.480Z,44.01
2017-10-06T14:37:27.457Z,44.76
2017-10-06T14:38:27.535Z,45.14
2017-10-06T14:40:22.480Z,45.04
2017-10-06T14:41:21.992Z,45.43
2017-10-06T14:43:16.513Z,45.43
2017-10-06T14:44:16.904Z,45.03
2017-10-06T14:46:10.008Z,45.29
2017-10-06T14:47:10.049Z,45.10
2017-10-06T14:49:03.592Z,44.90
2017-10-06T14:50:03.609Z,45.17
2017-10-06T14:51:58.000Z,45.58
2017-10-06T14:52:56.816Z,46.64
2017-10-06T14:54:51.305Z,46.04
2017-10-06T14:55:51.313Z,46.52
2017-10-06T14:57:44.241Z,47.39
2017-10-06T14:58:44.318Z,47.58
2017-10-06T15:00:37.305Z,47.19
2017-10-06T15:01:37.353Z,47.70
2017-10-06T15:03:30.833Z,47.70
2017-10-06T15:04:30.875Z,47.53
2017-10-06T15:06:24.353Z,45.79
2017-10-06T15:07:24.402Z,46.47
2017-10-06T15:09:17.953Z,45.99
2017-10-06T15:10:17.969Z,45.41
2017-10-06T15:12:12.449Z,46.52
2017-10-06T15:13:12.481Z,47.39
2017-10-06T15:15:06.026Z,47.49
2017-10-06T15:16:06.042Z,47.39
2017-10-06T15:18:00.554Z,48.13
2017-10-06T15:19:00.586Z,48.97
2017-10-06T15:20:54.033Z,49.84
2017-10-06T15:21:54.170Z,50.23
2017-10-06T15:23:47.648Z,49.58
2017-10-06T15:24:47.674Z,50.23
2017-10-06T15:26:41.146Z,50.13
2017-10-06T15:27:41.169Z,50.51
2017-10-06T15:29:34.258Z,50.23
2017-10-06T15:30:34.289Z,50.61
2017-10-06T15:32:28.802Z,50.51
2017-10-06T15:33:28.794Z,50.61
2017-10-06T15:35:22.250Z,50.13
2017-10-06T15:36:22.290Z,50.40
2017-10-06T15:38:16.802Z,51.07
2017-10-06T15:39:16.837Z,50.78
2017-10-06T15:41:11.306Z,51.84
2017-10-06T15:42:11.378Z,51.93
2017-10-06T15:44:05.362Z,51.93
2017-10-06T15:45:05.370Z,52.00
2017-10-06T15:46:58.347Z,52.70
2017-10-06T15:47:58.403Z,53.16
2017-10-06T15:49:51.911Z,52.97
2017-10-06T15:50:51.899Z,53.54
2017-10-06T15:52:45.364Z,52.68
2017-10-06T15:53:45.410Z,53.16
2017-10-06T15:55:38.947Z,53.06
2017-10-06T15:56:38.947Z,52.99
2017-10-06T15:58:31.979Z,53.47
2017-10-06T15:59:32.043Z,53.28
2017-10-06T16:01:26.459Z,53.28
2017-10-06T16:02:26.509Z,53.28
2017-10-06T16:04:20.076Z,52.99
2017-10-06T16:05:20.075Z,52.87
2017-10-06T16:07:13.499Z,53.16
2017-10-06T16:08:13.544Z,53.64
2017-10-06T16:10:06.556Z,53.92
2017-10-06T16:11:06.564Z,53.64
2017-10-06T16:13:00.068Z,53.54
2017-10-06T16:14:00.076Z,53.61
2017-10-06T16:15:54.548Z,54.38
2017-10-06T16:16:54.564Z,54.19
2017-10-06T16:18:48.109Z,55.22
2017-10-06T16:19:48.100Z,55.51
2017-10-06T16:21:41.637Z,55.79
2017-10-06T16:22:41.662Z,56.66
2017-10-06T16:24:35.182Z,57.33
2017-10-06T16:25:35.204Z,57.71
2017-10-06T16:27:28.749Z,59.70
2017-10-06T16:28:28.757Z,59.34
2017-10-06T16:30:21.812Z,60.08
2017-10-06T16:31:21.789Z,60.85
2017-10-06T16:33:16.310Z,60.28
2017-10-06T16:34:16.349Z,60.08
2017-10-06T16:36:10.013Z,61.14
2017-10-06T16:37:10.037Z,61.81
2017-10-06T16:39:02.997Z,61.81
2017-10-06T16:40:03.038Z,61.91
2017-10-06T16:41:57.069Z,61.43
2017-10-06T16:42:56.621Z,61.52
2017-10-06T16:44:50.118Z,62.36
2017-10-06T16:45:50.166Z,63.03
2017-10-06T16:47:43.197Z,62.65
2017-10-06T16:48:43.206Z,62.93
2017-10-06T16:50:36.205Z,62.36
2017-10-06T16:51:36.237Z,62.26
2017-10-06T16:53:30.726Z,62.93
2017-10-06T16:54:30.749Z,63.32
2017-10-06T16:56:25.182Z,63.70
2017-10-06T16:57:25.237Z,64.09
2017-10-06T16:59:19.759Z,64.47
2017-10-06T17:00:18.782Z,64.53
2017-10-06T17:02:11.790Z,63.60
2017-10-06T17:03:11.798Z,64.15
2017-10-06T17:05:05.486Z,64.05
2017-10-06T17:06:05.526Z,63.70
2017-10-06T17:07:59.071Z,64.82
2017-10-06T17:08:59.062Z,65.20
2017-10-06T17:10:52.057Z,66.26
2017-10-06T17:11:52.078Z,66.16
2017-10-06T17:13:45.071Z,65.59
2017-10-06T17:14:45.086Z,65.97
2017-10-06T17:16:38.055Z,65.97
2017-10-06T17:17:38.095Z,65.88
2017-10-06T17:19:32.750Z,67.57
2017-10-06T17:20:32.671Z,67.47
2017-10-06T17:22:27.087Z,68.40
2017-10-06T17:23:27.143Z,67.47
2017-10-06T17:25:21.713Z,68.40
2017-10-06T17:26:21.619Z,68.21
2017-10-06T17:28:16.111Z,67.85
2017-10-06T17:29:16.111Z,68.87
2017-10-06T17:31:10.576Z,68.68
2017-10-06T17:32:10.632Z,67.82
2017-10-06T17:34:04.162Z,68.68
2017-10-06T17:35:04.168Z,68.40
2017-10-06T17:36:57.159Z,68.68
2017-10-06T17:37:57.184Z,68.68
2017-10-06T17:39:50.183Z,68.59
2017-10-06T17:40:50.176Z,68.40
2017-10-06T17:42:43.191Z,67.91
2017-10-06T17:43:43.221Z,67.82
2017-10-06T17:45:36.211Z,68.01
2017-10-06T17:46:36.220Z,68.87
2017-10-06T17:48:30.708Z,68.97
2017-10-06T17:49:30.757Z,68.68
2017-10-06T17:51:25.244Z,68.40
2017-10-06T17:52:25.269Z,69.45
2017-10-06T17:54:18.797Z,69.83
2017-10-06T17:55:18.828Z,70.21
2017-10-06T17:57:11.861Z,70.18
2017-10-06T17:58:11.837Z,70.60
2017-10-06T18:00:04.853Z,70.37
2017-10-06T18:01:04.860Z,70.37
2017-10-06T18:02:58.909Z,70.28
2017-10-06T18:03:58.957Z,70.76
2017-10-06T18:05:52.508Z,70.28
2017-10-06T18:06:52.502Z,70.37
2017-10-06T18:08:47.101Z,70.37
2017-10-06T18:09:47.101Z,70.37
2017-10-06T18:11:41.533Z,69.89
2017-10-06T18:12:41.549Z,70.47
2017-10-06T18:14:35.137Z,71.42
2017-10-06T18:15:35.124Z,70.95
2017-10-06T18:17:28.152Z,71.62
2017-10-06T18:18:28.166Z,71.81
2017-10-06T18:20:21.202Z,71.81
2017-10-06T18:21:21.227Z,71.81
2017-10-06T18:23:17.091Z,71.42
2017-10-06T18:24:17.131Z,71.71
2017-10-06T18:26:10.259Z,71.91
2017-10-06T18:27:10.324Z,71.81
2017-10-06T18:29:03.882Z,71.91
2017-10-06T18:30:03.858Z,72.00
2017-10-06T18:31:56.818Z,71.42
2017-10-06T18:32:56.858Z,71.81
2017-10-06T18:34:49.884Z,71.91
2017-10-06T18:35:49.890Z,72.09
2017-10-06T18:37:43.554Z,71.71
2017-10-06T18:38:43.498Z,71.91
2017-10-06T18:40:36.971Z,72.58